createdAt,value
2017-12-26T00:02:10.903Z,13.43
2017-12-26T00:04:40.401Z,15.80
2017-12-26T00:07:09.855Z,13.98
2017-12-26T00:09:38.194Z,11.40
2017-12-26T00:12:07.667Z,11.40
2017-12-26T00:14:36.392Z,9.90
2017-12-26T00:17:05.085Z,15.63
2017-12-26T00:19:33.778Z,10.68
2017-12-26T00:22:02.209Z,7.20
2017-12-26T00:24:30.902Z,9.85
2017-12-26T00:26:59.577Z,7.43
2017-12-26T00:29:28.371Z,8.07
2017-12-26T00:31:57.053Z,8.27
2017-12-26T00:34:25.730Z,10.70
2017-12-26T00:36:54.465Z,7.90
2017-12-26T00:39:23.885Z,9.55
2017-12-26T00:41:52.559Z,8.43
2017-12-26T00:44:22.019Z,9.13
2017-12-26T00:46:50.729Z,15.57
2017-12-26T00:49:19.395Z,8.70
2017-12-26T00:51:48.121Z,6.47
2017-12-26T00:54:17.829Z,8.55
2017-12-26T00:56:47.402Z,5.12
2017-12-26T00:59:17.059Z,10.10
2017-12-26T01:01:46.502Z,6.00
2017-12-26T01:04:15.188Z,6.65
2017-12-26T01:06:43.891Z,7.03
2017-12-26T01:09:12.579Z,6.12
2017-12-26T01:11:41.269Z,6.95
2017-12-26T01:14:09.998Z,4.05
2017-12-26T01:16:39.440Z,7.47
2017-12-26T01:19:08.159Z,7.87
2017-12-26T01:21:36.875Z,7.32
2017-12-26T01:24:05.550Z,10.18
2017-12-26T01:26:35.010Z,7.90
2017-12-26T01:29:03.927Z,5.90
2017-12-26T01:31:32.599Z,4.30
2017-12-26T01:34:01.293Z,5.43
2017-12-26T01:36:29.691Z,9.45
2017-12-26T01:38:58.367Z,4.15
2017-12-26T01:41:27.249Z,7.53
2017-12-26T01:43:55.962Z,4.47
2017-12-26T01:46:25.417Z,6.37
2017-12-26T01:48:54.076Z,4.80
2017-12-26T01:51:23.533Z,8.55
2017-12-26T01:53:52.197Z,7.93
2017-12-26T01:56:20.866Z,7.82
2017-12-26T01:58:49.614Z,12.57
2017-12-26T02:01:18.285Z,5.05
2017-12-26T02:03:49.207Z,6.35
2017-12-26T02:06:17.910Z,4.57
2017-12-26T02:08:46.580Z,7.15
2017-12-26T02:11:15.255Z,7.72
2017-12-26T02:13:43.975Z,10.18
2017-12-26T02:16:13.413Z,5.82
2017-12-26T02:18:42.884Z,8.00
2017-12-26T02:21:11.583Z,5.35
2017-12-26T02:23:40.248Z,5.80
2017-12-26T02:26:08.924Z,7.00
2017-12-26T02:28:37.611Z,4.03
2017-12-26T02:31:06.282Z,5.32
2017-12-26T02:33:34.973Z,6.75
2017-12-26T02:36:03.670Z,5.45
2017-12-26T02:38:32.598Z,5.87
2017-12-26T02:41:01.266Z,4.10
2017-12-26T02:43:29.962Z,3.35
2017-12-26T02:45:58.667Z,4.45
2017-12-26T02:48:27.368Z,3.67
2017-12-26T02:50:56.053Z,3.92
2017-12-26T02:53:25.567Z,5.37
2017-12-26T02:55:55.023Z,4.15
2017-12-26T02:58:23.696Z,3.15
2017-12-26T03:00:52.393Z,4.12
2017-12-26T03:03:21.119Z,3.83
2017-12-26T03:05:49.788Z,4.45
2017-12-26T03:08:18.493Z,3.97
2017-12-26T03:10:47.159Z,6.60
2017-12-26T03:13:15.858Z,3.97
2017-12-26T03:15:44.537Z,5.30
2017-12-26T03:18:13.241Z,4.87
2017-12-26T03:20:41.922Z,3.25
2017-12-26T03:23:10.623Z,4.93
2017-12-26T03:25:40.087Z,10.52
2017-12-26T03:28:08.774Z,3.62
2017-12-26T03:30:37.466Z,8.18
2017-12-26T03:33:06.135Z,4.37
2017-12-26T03:35:34.805Z,4.18
2017-12-26T03:38:03.494Z,4.80
2017-12-26T03:40:32.168Z,5.35
2017-12-26T03:43:00.835Z,3.30
2017-12-26T03:45:29.513Z,4.18
2017-12-26T03:47:58.193Z,6.50
2017-12-26T03:50:26.912Z,7.53
2017-12-26T03:52:55.584Z,2.60
2017-12-26T03:55:25.026Z,3.92
2017-12-26T03:57:53.721Z,4.78
2017-12-26T04:00:22.406Z,4.45
2017-12-26T04:02:51.085Z,3.75
2017-12-26T04:05:19.765Z,2.92
2017-12-26T04:07:48.522Z,6.90
2017-12-26T04:10:17.236Z,5.10
2017-12-26T04:12:46.861Z,8.20
2017-12-26T04:15:15.574Z,4.32
2017-12-26T04:17:44.293Z,6.53
2017-12-26T04:20:13.760Z,2.75
2017-12-26T04:22:42.450Z,3.25
2017-12-26T04:25:11.140Z,5.20
2017-12-26T04:27:39.480Z,2.30
2017-12-26T04:30:08.206Z,6.15
2017-12-26T04:32:36.887Z,3.47
2017-12-26T04:35:05.599Z,5.15
2017-12-26T04:37:34.301Z,5.72
2017-12-26T04:40:02.991Z,4.15
2017-12-26T04:42:31.669Z,3.55
2017-12-26T04:45:00.426Z,2.58
2017-12-26T04:47:29.112Z,4.25
2017-12-26T04:49:57.971Z,4.28
2017-12-26T04:52:26.676Z,3.00
2017-12-26T04:54:55.373Z,4.32
2017-12-26T04:57:24.055Z,3.80
2017-12-26T04:59:52.795Z,2.15
2017-12-26T05:02:22.249Z,3.50
2017-12-26T05:04:50.950Z,3.17
2017-12-26T05:07:19.646Z,5.72
2017-12-26T05:09:48.384Z,3.85
2017-12-26T05:12:18.005Z,4.32
2017-12-26T05:14:46.727Z,2.65
2017-12-26T05:17:15.398Z,3.85
2017-12-26T05:19:44.103Z,2.05
2017-12-26T05:22:12.805Z,6.43
2017-12-26T05:24:41.474Z,2.90
2017-12-26T05:27:10.163Z,5.12
2017-12-26T05:29:38.891Z,4.70
2017-12-26T05:32:07.581Z,3.30
2017-12-26T05:34:36.253Z,3.75
2017-12-26T05:37:05.708Z,3.40
2017-12-26T05:39:34.384Z,2.22
2017-12-26T05:42:03.076Z,2.55
2017-12-26T05:44:31.774Z,2.25
2017-12-26T05:47:00.449Z,2.40
2017-12-26T05:49:29.156Z,2.95
2017-12-26T05:51:57.914Z,3.05
2017-12-26T05:54:26.640Z,2.67
2017-12-26T05:56:55.331Z,3.33
2017-12-26T05:59:24.071Z,2.25
2017-12-26T06:01:52.767Z,3.78
2017-12-26T06:04:21.458Z,4.20
2017-12-26T06:06:50.165Z,3.45
2017-12-26T06:09:18.864Z,6.68
2017-12-26T06:11:46.892Z,2.78
2017-12-26T06:14:15.603Z,4.80
2017-12-26T06:16:44.306Z,4.97
2017-12-26T06:19:12.989Z,4.10
2017-12-26T06:21:41.684Z,4.15
2017-12-26T06:24:10.380Z,4.37
2017-12-26T06:26:39.100Z,4.50
2017-12-26T06:29:08.726Z,6.68
2017-12-26T06:31:37.412Z,4.87
2017-12-26T06:34:06.110Z,6.28
2017-12-26T06:36:34.770Z,6.25
2017-12-26T06:39:03.546Z,4.72
2017-12-26T06:41:32.268Z,5.87
2017-12-26T06:44:00.963Z,4.53
2017-12-26T06:46:29.655Z,9.13
2017-12-26T06:48:58.402Z,5.90
2017-12-26T06:51:27.843Z,6.35
2017-12-26T06:53:56.548Z,10.05
2017-12-26T06:56:25.305Z,4.82
2017-12-26T06:58:53.991Z,7.87
2017-12-26T07:01:22.737Z,6.35
2017-12-26T07:03:51.443Z,4.75
2017-12-26T07:06:20.922Z,9.20
2017-12-26T07:08:49.611Z,7.28
2017-12-26T07:11:18.508Z,5.93
2017-12-26T07:13:47.193Z,6.78
2017-12-26T07:16:15.850Z,6.70
2017-12-26T07:18:44.531Z,7.35
2017-12-26T07:21:18.721Z,7.37
2017-12-26T07:23:47.415Z,6.25
2017-12-26T07:26:16.159Z,7.62
2017-12-26T07:28:44.867Z,7.47
2017-12-26T07:31:14.312Z,6.05
2017-12-26T07:33:42.971Z,5.70
2017-12-26T07:36:11.695Z,6.62
2017-12-26T07:38:40.355Z,6.93
2017-12-26T07:41:09.040Z,7.20
2017-12-26T07:43:37.749Z,6.50
2017-12-26T07:46:06.442Z,9.77
2017-12-26T07:48:35.141Z,5.72
2017-12-26T07:51:03.862Z,10.48
2017-12-26T07:53:32.526Z,7.10
2017-12-26T07:56:01.322Z,6.87
2017-12-26T07:58:30.039Z,4.15
2017-12-26T08:00:58.768Z,4.35
2017-12-26T08:03:27.483Z,5.45
2017-12-26T08:05:56.178Z,6.93
2017-12-26T08:08:24.955Z,5.15
2017-12-26T08:10:53.678Z,5.72
2017-12-26T08:13:23.142Z,8.18
2017-12-26T08:15:51.844Z,3.50
2017-12-26T08:18:20.586Z,4.80
2017-12-26T08:20:49.293Z,5.35
2017-12-26T08:23:17.997Z,5.90
2017-12-26T08:25:46.714Z,4.25
2017-12-26T08:28:16.167Z,8.52
2017-12-26T08:30:44.866Z,4.78
2017-12-26T08:33:13.570Z,4.03
2017-12-26T08:35:42.274Z,4.22
2017-12-26T08:38:11.112Z,4.85
2017-12-26T08:40:39.806Z,4.78
2017-12-26T08:43:08.973Z,4.73
2017-12-26T08:45:37.396Z,7.50
2017-12-26T08:48:06.610Z,5.67
2017-12-26T08:50:35.601Z,5.20
2017-12-26T08:53:04.778Z,4.70
2017-12-26T08:55:33.227Z,5.53
2017-12-26T08:58:01.653Z,4.40
2017-12-26T09:00:30.872Z,4.77
2017-12-26T09:02:59.287Z,4.73
2017-12-26T09:05:27.954Z,4.83
2017-12-26T09:07:56.382Z,4.83
2017-12-26T09:10:24.822Z,4.20
2017-12-26T09:12:53.247Z,4.03
2017-12-26T09:15:21.665Z,5.43
2017-12-26T09:17:50.063Z,4.97
2017-12-26T09:20:18.488Z,4.87
2017-12-26T09:22:46.901Z,5.50
2017-12-26T09:25:15.306Z,4.93
2017-12-26T09:27:43.715Z,3.53
2017-12-26T09:30:12.354Z,3.50
2017-12-26T09:32:40.777Z,8.60
2017-12-26T09:35:09.256Z,3.43
2017-12-26T09:37:37.884Z,3.73
2017-12-26T09:40:07.095Z,3.53
2017-12-26T09:42:35.535Z,3.83
2017-12-26T09:45:03.992Z,3.97
2017-12-26T09:47:32.417Z,4.43
2017-12-26T09:50:01.662Z,3.97
2017-12-26T09:52:30.086Z,5.57
2017-12-26T09:54:58.500Z,3.27
2017-12-26T09:57:26.925Z,5.40
2017-12-26T09:59:55.344Z,3.77
2017-12-26T10:02:23.769Z,3.40
2017-12-26T10:04:52.244Z,3.47
2017-12-26T10:07:20.692Z,4.10
2017-12-26T10:09:49.147Z,3.90
2017-12-26T10:12:17.619Z,4.17
2017-12-26T10:14:46.040Z,3.90
2017-12-26T10:17:14.898Z,4.47
2017-12-26T10:19:43.331Z,3.10
2017-12-26T10:22:11.833Z,4.03
2017-12-26T10:24:40.263Z,3.50
2017-12-26T10:27:08.697Z,3.40
2017-12-26T10:29:37.107Z,3.80
2017-12-26T10:32:05.525Z,5.47
2017-12-26T10:34:34.732Z,3.13
2017-12-26T10:37:03.153Z,3.93
2017-12-26T10:39:31.580Z,4.10
2017-12-26T10:42:00.811Z,4.60
2017-12-26T10:44:29.234Z,3.77
2017-12-26T10:46:57.724Z,3.53
2017-12-26T10:49:26.928Z,3.77
2017-12-26T10:51:56.124Z,3.83
2017-12-26T10:54:24.600Z,5.50
2017-12-26T10:56:53.819Z,4.57
2017-12-26T10:59:23.015Z,4.33
2017-12-26T11:01:52.301Z,3.33
2017-12-26T11:04:21.585Z,4.47
2017-12-26T11:06:50.829Z,4.27
2017-12-26T11:09:19.326Z,3.80
2017-12-26T11:11:47.767Z,4.80
2017-12-26T11:14:16.217Z,4.13
2017-12-26T11:16:44.672Z,3.50
2017-12-26T11:19:13.103Z,4.50
2017-12-26T11:21:41.579Z,5.57
2017-12-26T11:24:10.040Z,4.27
2017-12-26T11:26:38.482Z,4.30
2017-12-26T11:29:06.933Z,3.83
2017-12-26T11:31:35.379Z,5.53
2017-12-26T11:34:03.865Z,4.80
2017-12-26T11:36:32.316Z,6.20
2017-12-26T11:39:00.782Z,4.53
2017-12-26T11:41:30.025Z,5.60
2017-12-26T11:43:58.463Z,4.67
2017-12-26T11:46:27.747Z,5.37
2017-12-26T11:48:56.175Z,6.40
2017-12-26T11:51:24.612Z,5.53
2017-12-26T11:53:53.113Z,4.60
2017-12-26T11:56:22.327Z,7.87
2017-12-26T11:58:50.849Z,3.77
2017-12-26T12:01:20.872Z,4.93
2017-12-26T12:03:49.415Z,9.37
2017-12-26T12:06:17.881Z,2.93
2017-12-26T12:08:46.338Z,4.17
2017-12-26T12:11:14.790Z,6.73
2017-12-26T12:13:43.236Z,6.40
2017-12-26T12:16:11.658Z,7.30
2017-12-26T12:18:40.138Z,9.20
2017-12-26T12:21:08.570Z,9.80
2017-12-26T12:23:37.820Z,8.93
2017-12-26T12:26:06.474Z,7.93
2017-12-26T12:28:34.870Z,8.67
2017-12-26T12:31:03.286Z,8.77
2017-12-26T12:33:31.723Z,10.60
2017-12-26T12:36:00.191Z,11.37
2017-12-26T12:38:28.627Z,9.13
2017-12-26T12:40:57.209Z,8.83
2017-12-26T12:43:26.541Z,5.70
2017-12-26T12:45:55.751Z,6.63
2017-12-26T12:48:24.985Z,8.20
2017-12-26T12:50:53.403Z,6.70
2017-12-26T12:53:21.807Z,6.47
2017-12-26T12:55:51.015Z,7.50
2017-12-26T12:58:20.196Z,10.00
2017-12-26T13:00:48.627Z,8.40
2017-12-26T13:03:17.083Z,7.37
2017-12-26T13:05:45.525Z,6.20
2017-12-26T13:08:13.770Z,7.20
2017-12-26T13:10:42.231Z,8.07
2017-12-26T13:13:10.650Z,6.10
2017-12-26T13:15:39.113Z,5.03
2017-12-26T13:18:08.404Z,6.23
2017-12-26T13:20:36.866Z,7.10
2017-12-26T13:23:05.295Z,6.80
2017-12-26T13:25:33.730Z,6.07
2017-12-26T13:28:02.180Z,7.87
2017-12-26T13:30:30.693Z,13.83
2017-12-26T13:32:59.126Z,6.90
2017-12-26T13:35:27.553Z,8.37
2017-12-26T13:37:55.963Z,9.87
2017-12-26T13:40:24.413Z,27.97
2017-12-26T13:42:53.613Z,13.60
2017-12-26T13:45:22.042Z,9.60
2017-12-26T13:47:50.670Z,5.60
2017-12-26T13:50:19.883Z,5.60
2017-12-26T13:52:48.281Z,6.70
2017-12-26T13:55:16.704Z,13.60
2017-12-26T13:57:45.222Z,10.70
2017-12-26T14:00:13.653Z,15.40
2017-12-26T14:02:42.096Z,32.20
2017-12-26T14:05:10.569Z,33.00
2017-12-26T14:07:40.324Z,14.17
2017-12-26T14:10:09.526Z,13.13
2017-12-26T14:12:39.035Z,7.00
2017-12-26T14:15:07.562Z,6.77
2017-12-26T14:17:38.958Z,8.67
2017-12-26T14:20:10.332Z,8.03
2017-12-26T14:22:39.472Z,6.60
2017-12-26T14:25:08.235Z,12.15
2017-12-26T14:27:36.958Z,8.10
2017-12-26T14:30:05.674Z,11.10
2017-12-26T14:32:34.373Z,12.50
2017-12-26T14:35:03.057Z,5.22
2017-12-26T14:37:31.757Z,9.73
2017-12-26T14:40:00.463Z,9.40
2017-12-26T14:42:29.171Z,16.73
2017-12-26T14:44:57.908Z,10.35
2017-12-26T14:47:26.598Z,10.55
2017-12-26T14:49:55.297Z,10.10
2017-12-26T14:52:23.973Z,10.95
2017-12-26T14:54:52.661Z,9.35
2017-12-26T14:57:21.394Z,6.18
2017-12-26T14:59:50.097Z,6.80
2017-12-26T15:02:18.790Z,9.15
2017-12-26T15:04:47.309Z,7.68
2017-12-26T15:07:15.985Z,13.40
2017-12-26T15:09:45.448Z,10.75
2017-12-26T15:12:14.148Z,10.57
2017-12-26T15:14:42.820Z,14.45
2017-12-26T15:17:11.295Z,9.00
2017-12-26T15:19:39.981Z,10.55
2017-12-26T15:22:08.444Z,8.70
2017-12-26T15:24:37.106Z,11.20
2017-12-26T15:27:05.717Z,8.38
2017-12-26T15:29:34.364Z,9.77
2017-12-26T15:32:03.027Z,12.30
2017-12-26T15:34:31.701Z,12.13
2017-12-26T15:37:00.345Z,14.98
2017-12-26T15:39:29.009Z,16.77
2017-12-26T15:41:58.459Z,20.67
2017-12-26T15:44:27.112Z,33.13
2017-12-26T15:46:55.965Z,22.67
2017-12-26T15:49:24.654Z,27.05
2017-12-26T15:51:53.333Z,36.72
2017-12-26T15:54:21.997Z,28.25
2017-12-26T15:56:53.696Z,29.00
2017-12-26T15:59:22.890Z,16.17
2017-12-26T16:01:51.587Z,18.12
2017-12-26T16:04:21.077Z,16.80
2017-12-26T16:06:50.333Z,13.93
2017-12-26T16:09:19.036Z,9.75
2017-12-26T16:11:47.791Z,11.23
2017-12-26T16:14:16.609Z,9.80
2017-12-26T16:16:45.961Z,9.68
2017-12-26T16:19:15.481Z,10.13
2017-12-26T16:21:44.910Z,8.55
2017-12-26T16:24:13.581Z,7.75
2017-12-26T16:26:42.293Z,11.48
2017-12-26T16:29:10.943Z,7.72
2017-12-26T16:31:39.626Z,7.62
2017-12-26T16:34:09.118Z,7.22
2017-12-26T16:36:38.151Z,8.43
2017-12-26T16:39:07.714Z,10.27
2017-12-26T16:41:36.405Z,8.27
2017-12-26T16:44:05.232Z,7.95
2017-12-26T16:46:33.918Z,16.58
2017-12-26T16:49:02.720Z,35.60
2017-12-26T16:51:31.400Z,23.10
2017-12-26T16:54:00.122Z,22.08
2017-12-26T16:56:28.877Z,25.10
2017-12-26T16:58:57.546Z,26.98
2017-12-26T17:01:26.982Z,17.77
2017-12-26T17:03:55.650Z,17.60
2017-12-26T17:06:24.378Z,23.52
2017-12-26T17:08:53.074Z,24.40
2017-12-26T17:11:21.569Z,22.77
2017-12-26T17:13:50.248Z,22.45
2017-12-26T17:16:18.955Z,17.50
2017-12-26T17:18:47.657Z,17.42
2017-12-26T17:21:17.144Z,24.15
2017-12-26T17:23:45.862Z,30.75
2017-12-26T17:26:14.542Z,32.58
2017-12-26T17:28:44.090Z,39.42
2017-12-26T17:31:12.729Z,11.55
2017-12-26T17:33:42.161Z,20.42
2017-12-26T17:36:10.885Z,21.98
2017-12-26T17:38:39.606Z,18.45
2017-12-26T17:41:09.068Z,15.63
2017-12-26T17:43:37.736Z,15.30
2017-12-26T17:46:06.397Z,13.77
2017-12-26T17:48:35.092Z,20.83
2017-12-26T17:51:03.786Z,19.08
2017-12-26T17:53:32.444Z,25.33
2017-12-26T17:56:01.865Z,17.40
2017-12-26T17:58:31.320Z,19.92
2017-12-26T18:00:59.987Z,14.93
2017-12-26T18:03:28.648Z,12.80
2017-12-26T18:05:57.304Z,14.48
2017-12-26T18:08:25.765Z,12.75
2017-12-26T18:10:54.246Z,12.48
2017-12-26T18:13:23.546Z,10.88
2017-12-26T18:15:52.029Z,14.50
2017-12-26T18:18:20.550Z,13.40
2017-12-26T18:20:50.005Z,23.17
2017-12-26T18:23:18.719Z,24.90
2017-12-26T18:25:47.431Z,27.00
2017-12-26T18:28:16.185Z,31.67
2017-12-26T18:30:44.973Z,14.57
2017-12-26T18:33:13.798Z,24.50
2017-12-26T18:35:43.268Z,24.15
2017-12-26T18:38:11.931Z,21.45
2017-12-26T18:40:40.340Z,18.33
2017-12-26T18:43:09.078Z,10.13
2017-12-26T18:45:37.764Z,17.05
2017-12-26T18:48:06.296Z,14.35
2017-12-26T18:50:35.065Z,11.63
2017-12-26T18:53:03.748Z,11.40
2017-12-26T18:55:32.420Z,11.73
2017-12-26T18:58:01.112Z,10.90
2017-12-26T19:00:29.748Z,10.02
2017-12-26T19:02:58.392Z,11.40
2017-12-26T19:05:27.058Z,14.18
2017-12-26T19:07:55.700Z,12.95
2017-12-26T19:10:24.549Z,13.52
2017-12-26T19:12:53.350Z,13.23
2017-12-26T19:15:22.065Z,17.65
2017-12-26T19:17:50.720Z,22.02
2017-12-26T19:20:19.506Z,24.90
2017-12-26T19:22:48.160Z,30.60
2017-12-26T19:25:16.804Z,36.97
2017-12-26T19:27:45.516Z,28.62
2017-12-26T19:30:14.996Z,34.70
2017-12-26T19:32:43.672Z,24.33
2017-12-26T19:35:12.480Z,20.33
2017-12-26T19:37:41.165Z,17.73
2017-12-26T19:40:09.868Z,17.95
2017-12-26T19:42:38.623Z,23.02
2017-12-26T19:45:07.376Z,22.75
2017-12-26T19:47:36.784Z,22.27
2017-12-26T19:50:05.525Z,35.63
2017-12-26T19:52:34.211Z,25.92
2017-12-26T19:55:02.872Z,20.70
2017-12-26T19:57:31.524Z,14.02
2017-12-26T20:00:01.009Z,15.40
2017-12-26T20:02:29.677Z,15.95
2017-12-26T20:04:58.454Z,17.87
2017-12-26T20:07:27.133Z,21.98
2017-12-26T20:09:56.205Z,11.98
2017-12-26T20:12:24.865Z,16.52
2017-12-26T20:14:53.654Z,14.63
2017-12-26T20:17:23.109Z,15.70
2017-12-26T20:19:51.832Z,19.35
2017-12-26T20:22:21.284Z,14.70
2017-12-26T20:24:49.956Z,12.05
2017-12-26T20:27:18.428Z,15.13
2017-12-26T20:30:02.688Z,17.87
2017-12-26T20:32:31.376Z,14.95
2017-12-26T20:35:00.069Z,14.30
2017-12-26T20:37:28.773Z,16.33
2017-12-26T20:39:57.414Z,11.30
2017-12-26T20:42:26.094Z,13.55
2017-12-26T20:44:55.553Z,8.82
2017-12-26T20:47:24.212Z,6.62
2017-12-26T20:49:53.665Z,7.68
2017-12-26T20:52:22.439Z,14.43
2017-12-26T20:54:51.152Z,9.07
2017-12-26T20:57:19.871Z,6.80
2017-12-26T20:59:49.511Z,11.12
2017-12-26T21:02:18.221Z,15.02
2017-12-26T21:04:47.007Z,11.80
2017-12-26T21:07:15.742Z,18.45
2017-12-26T21:09:45.164Z,12.65
2017-12-26T21:12:13.842Z,10.23
2017-12-26T21:14:42.557Z,18.17
2017-12-26T21:17:11.240Z,17.10
2017-12-26T21:19:39.917Z,17.58
2017-12-26T21:22:09.552Z,14.38
2017-12-26T21:24:38.253Z,13.40
2017-12-26T21:27:06.940Z,16.37
2017-12-26T21:29:35.612Z,12.25
2017-12-26T21:32:04.709Z,11.05
2017-12-26T21:34:34.174Z,11.50
2017-12-26T21:37:03.320Z,13.77
2017-12-26T21:39:32.106Z,8.15
2017-12-26T21:42:01.368Z,9.38
2017-12-26T21:44:30.078Z,8.27
2017-12-26T21:46:58.561Z,7.75
2017-12-26T21:49:27.004Z,7.03
2017-12-26T21:51:55.512Z,8.98
2017-12-26T21:54:25.363Z,6.12
2017-12-26T21:56:54.013Z,5.75
2017-12-26T21:59:22.709Z,9.20
2017-12-26T22:01:51.361Z,7.53
2017-12-26T22:04:20.001Z,5.00
2017-12-26T22:06:49.424Z,11.18
2017-12-26T22:09:18.830Z,7.93
2017-12-26T22:11:48.241Z,7.10
2017-12-26T22:14:16.901Z,8.27
2017-12-26T22:16:45.535Z,7.15
2017-12-26T22:19:14.173Z,8.48
2017-12-26T22:21:42.832Z,8.02
2017-12-26T22:24:11.485Z,6.60
2017-12-26T22:26:40.343Z,7.68
2017-12-26T22:29:09.052Z,9.48
2017-12-26T22:31:37.737Z,10.85
2017-12-26T22:34:06.392Z,4.50
2017-12-26T22:36:35.066Z,7.43
2017-12-26T22:39:03.228Z,6.75
2017-12-26T22:41:31.911Z,6.87
2017-12-26T22:44:00.596Z,7.53
2017-12-26T22:46:29.237Z,4.35
2017-12-26T22:48:57.876Z,9.18
2017-12-26T22:51:26.529Z,7.10
2017-12-26T22:53:55.184Z,5.60
2017-12-26T22:56:23.868Z,6.18
2017-12-26T22:58:52.405Z,8.02
2017-12-26T23:01:21.072Z,5.57
2017-12-26T23:03:49.516Z,5.15
2017-12-26T23:06:18.268Z,6.72
2017-12-26T23:08:46.928Z,4.72
2017-12-26T23:11:15.559Z,5.75
2017-12-26T23:13:44.045Z,14.60
2017-12-26T23:16:18.032Z,8.13
2017-12-26T23:18:46.777Z,4.72
2017-12-26T23:21:16.172Z,6.62
2017-12-26T23:23:50.958Z,8.00
2017-12-26T23:26:38.236Z,6.07
2017-12-26T23:29:13.129Z,7.57
2017-12-26T23:31:47.671Z,3.80
2017-12-26T23:34:21.736Z,5.30
2017-12-26T23:36:55.860Z,5.53
2017-12-26T23:39:29.912Z,5.82
2017-12-26T23:42:04.071Z,6.75
2017-12-26T23:44:38.093Z,7.82
2017-12-26T23:47:12.218Z,7.70
2017-12-26T23:49:46.263Z,11.57
2017-12-26T23:52:20.288Z,5.28
2017-12-26T23:54:55.076Z,6.43
2017-12-26T23:57:29.208Z,5.62
